Greenville, WI (54942)

12:55 AM CDT on October 31, 2014 (GMT -0500)
East End, School Road | Change Station
CLOSE
Current Station
Personal Weather Station
Location: Greenville, WI
Elevation: 880 ft
Nearby Weather Stations
Active Advisory: Special Statement

Elev 880 ft 44.29 °N, 88.52 °W | Updated 7 seconds ago

Overcast
Overcast
38.6 °F
Feels Like 35 °F
N
5.0
Wind Variable Wind from NW
Gusts 13.0 mph

Today
High -- | Low -- °F
--% Chance of Precip.
Yesterday
High -- | Low -- °F
Precip. -- in
7:29 AM 5:45 PM
First Quarter, 51% visible
Pressure 30.04 in
Visibility 10.0 miles
Clouds Scattered Clouds 2600 ft
Scattered Clouds 3100 ft
Mostly Cloudy 8000 ft
Windchill 35 °F
Dew Point 33 °F
Humidity 80%
Rainfall 0.00 in
Snow Depth Not available.
UV 0 out of 12
Pollen .20 out of 12
Air Quality Not available.
Flu Activity Not available.
METAR KATW 310535Z AUTO 32016G21KT 10SM SCT026 SCT031 BKN080 03/M01 A3004 RMK AO2

More Conditions Fewer Conditions

Pressure 30.04 in
Visibility 10.0 miles
Clouds Scattered Clouds 2600 ft
Scattered Clouds 3100 ft
Mostly Cloudy 8000 ft
Windchill 35 °F
Dew Point 33 °F
Humidity 80%
Rainfall 0.00 in
Snow Depth Not available.
UV 0 out of 12
Pollen .20 out of 12
Air Quality Not available.
Flu Activity Not available.
METAR KATW 310535Z AUTO 32016G21KT 10SM SCT026 SCT031 BKN080 03/M01 A3004 RMK AO2

More Conditions Fewer Conditions

10-Day Weather Forecast

Almanac

Astronomy

Oct. 31, 2014 Rise Set
Actual Time
Civil Twilight
Nautical Twilight
Astronomical Twilight
Moon
Length of Visible Light
Length of Day
Tomorrow will be .
, % of the Moon is Illuminated

Today's Extremes

State Highs State Lows

Community

WunderPhotos

Upload Photos

1,766,570 photos uploaded!

WunderBlogs® & News

Nearby

Air Quality

  Air Quality AQ Index Pollutant
Not available.

Snow Depth

Station Depth Elevation

Earthquake Activity

City Distance Mag. Time & Date
Minimum magnitude displayed is 2.5.

Coastal Water Temperatures

Place Temperature

Nearby Weather Stations